22:09
Airports
Links
Donate
Help keep this website running!
PayPal
Bitcoin
METAR
PHNL 172153Z 05019G27KT 10SM FEW026 SCT043 SCT055 29/16 A3005 RMK AO2 PK WND 05027/2150 SLP174 T02890161
Current Weather Conditions at PHNL
VFR 21:53:00 17-10-17
Automated station
Altimeter:30.05 hg
Temp:28.9°c 82°f
Dew point:16.1°c 61°f
Wind:19 knots, 21.9 mph, 10 m/s, from 50°
Visibility:10.0 statute miles
5500(SCT) Scattered
4300(SCT) Scattered
2600(FEW) A few
Past METAR reports
VFR 20:53:00 17-10-17
Automated station
Altimeter:30.07 hg
Temp:29.4°c 84°f
Dew point:16.7°c 61°f
Wind:18 knots, 20.7 mph, 9 m/s, from 70°
Visibility:10.0 statute miles
5000(SCT) Scattered
2600(FEW) A few
PHNL 172053Z 07018G29KT 10SM FEW026 SCT050 29/17 A3007 RMK AO2 PK WND 07031/2030 SLP181 60000 T02940167 50001
VFR 19:53:00 17-10-17
Automated station
Altimeter:30.08 hg
Temp:28.9°c 82°f
Dew point:16.7°c 61°f
Wind:17 knots, 19.6 mph, 9 m/s, from 50°
Visibility:10.0 statute miles
4700(SCT) Scattered
2700(FEW) A few
PHNL 171953Z 05017G25KT 10SM FEW027 SCT047 29/17 A3008 RMK AO2 PK WND 04027/1918 RAB18E27 SLP185 P0000 T02890167
VFR 18:53:00 17-10-17
Automated station
Altimeter:30.08 hg
Temp:26.7°c 79°f
Dew point:16.7°c 61°f
Wind:13 knots, 15 mph, 7 m/s, from 50°
Visibility:10.0 statute miles
4300(SCT) Scattered
2800(FEW) A few
PHNL 171853Z 05013G21KT 10SM FEW028 SCT043 27/17 A3008 RMK AO2 PK WND 08028/1831 SLP186 T02670167
VFR 17:53:00 17-10-17
Automated station
Altimeter:30.06 hg
Temp:26.7°c 79°f
Dew point:17.2°c 63°f
Wind:14 knots, 16.1 mph, 7 m/s, from 50°
Visibility:10.0 statute miles
7000(BKN) Broken
4200(SCT) Scattered
2500(FEW) A few
PHNL 171753Z 05014G27KT 10SM FEW025 SCT042 BKN070 27/17 A3006 RMK AO2 PK WND 05027/1748 SLP180 60000 T02670172 10267 20244 53017
VFR 16:53:00 17-10-17
Automated station
Altimeter:30.04 hg
Temp:25.6°c 77°f
Dew point:16.7°c 61°f
Wind:10 knots, 11.5 mph, 5 m/s, from 50°
Visibility:10.0 statute miles
5000(SCT) Scattered
2700(FEW) A few
PHNL 171653Z 05010G21KT 10SM FEW027 SCT050 26/17 A3004 RMK AO2 SLP171 T02560167
TAF
PHNL 172100Z 1721/1824 06022G30KT P6SM VCSH FEW025 SCT050 FM180500 05014G22KT P6SM VCSH FEW025 SCT050 FM181900 05020G28KT P6SM VCSH FEW025 SCT050
Forecast at PHNL
21:00 17-10-17 to 05:00 18-10-17
VCSH
Wind:22 Knots from 60°
Visibility:6.21 statute miles
2500FEW A few
5000SCT Scattered
FM 05:00 18-10-17 to 19:00 18-10-17
VCSH
Wind:14 Knots from 50°
Visibility:6.21 statute miles
2500FEW A few
5000SCT Scattered
FM 19:00 18-10-17 to 00:00 19-10-17
VCSH
Wind:20 Knots from 50°
Visibility:6.21 statute miles
2500FEW A few
5000SCT Scattered